sensor_id;sensor_type;location;lat;lon;timestamp;pressure;altitude;pressure_sealevel;temperature;humidity
70968;BME280;58629;48.808;8.820;2023-02-20T00:00:38;98239.72;;;6.64;88.06
70968;BME280;58629;48.808;8.820;2023-02-20T00:03:04;98235.13;;;6.57;88.48
70968;BME280;58629;48.808;8.820;2023-02-20T00:05:30;98239.81;;;6.45;88.68
70968;BME280;58629;48.808;8.820;2023-02-20T00:07:55;98234.03;;;6.36;89.31
70968;BME280;58629;48.808;8.820;2023-02-20T00:10:21;98240.34;;;6.31;89.27
70968;BME280;58629;48.808;8.820;2023-02-20T00:12:48;98230.88;;;6.27;89.99
70968;BME280;58629;48.808;8.820;2023-02-20T00:15:14;98225.91;;;6.22;89.69
70968;BME280;58629;48.808;8.820;2023-02-20T00:17:42;98218.34;;;6.20;89.65
70968;BME280;58629;48.808;8.820;2023-02-20T00:20:08;98217.84;;;6.11;89.93
70968;BME280;58629;48.808;8.820;2023-02-20T00:22:33;98217.41;;;6.09;90.32
70968;BME280;58629;48.808;8.820;2023-02-20T00:24:58;98222.91;;;6.00;90.37
70968;BME280;58629;48.808;8.820;2023-02-20T00:27:24;98234.19;;;6.01;89.92
70968;BME280;58629;48.808;8.820;2023-02-20T00:29:49;98228.09;;;5.97;90.11
70968;BME280;58629;48.808;8.820;2023-02-20T00:32:14;98222.38;;;5.91;90.23
70968;BME280;58629;48.808;8.820;2023-02-20T00:34:39;98228.66;;;5.87;90.45
70968;BME280;58629;48.808;8.820;2023-02-20T00:37:05;98223.00;;;5.85;90.61
70968;BME280;58629;48.808;8.820;2023-02-20T00:39:31;98235.63;;;5.79;90.98
70968;BME280;58629;48.808;8.820;2023-02-20T00:41:56;98243.03;;;5.74;91.37
70968;BME280;58629;48.808;8.820;2023-02-20T00:44:22;98251.69;;;5.74;91.20
70968;BME280;58629;48.808;8.820;2023-02-20T00:46:47;98248.97;;;5.71;91.35
70968;BME280;58629;48.808;8.820;2023-02-20T00:49:13;98252.31;;;5.68;91.44
70968;BME280;58629;48.808;8.820;2023-02-20T00:51:38;98254.94;;;5.68;90.89
70968;BME280;58629;48.808;8.820;2023-02-20T00:54:03;98245.88;;;5.65;91.53
70968;BME280;58629;48.808;8.820;2023-02-20T00:56:29;98246.59;;;5.62;90.97
70968;BME280;58629;48.808;8.820;2023-02-20T00:58:54;98246.84;;;5.57;91.14
70968;BME280;58629;48.808;8.820;2023-02-20T01:01:20;98246.00;;;5.53;91.24
70968;BME280;58629;48.808;8.820;2023-02-20T01:03:46;98241.88;;;5.52;91.63
70968;BME280;58629;48.808;8.820;2023-02-20T01:06:11;98237.31;;;5.49;91.91
70968;BME280;58629;48.808;8.820;2023-02-20T01:08:37;98250.31;;;5.42;91.56
70968;BME280;58629;48.808;8.820;2023-02-20T01:11:02;98253.94;;;5.38;91.37
70968;BME280;58629;48.808;8.820;2023-02-20T01:13:27;98253.88;;;5.34;91.96
70968;BME280;58629;48.808;8.820;2023-02-20T01:15:53;98256.88;;;5.33;92.03
70968;BME280;58629;48.808;8.820;2023-02-20T01:18:18;98250.78;;;5.28;92.08
70968;BME280;58629;48.808;8.820;2023-02-20T01:20:43;98249.25;;;5.27;92.10
70968;BME280;58629;48.808;8.820;2023-02-20T01:23:09;98240.53;;;5.23;92.07
70968;BME280;58629;48.808;8.820;2023-02-20T01:25:34;98241.38;;;5.27;92.55
70968;BME280;58629;48.808;8.820;2023-02-20T01:28:00;98239.03;;;5.22;92.45
70968;BME280;58629;48.808;8.820;2023-02-20T01:30:25;98239.69;;;5.19;92.33
70968;BME280;58629;48.808;8.820;2023-02-20T01:32:50;98244.81;;;5.12;92.55
70968;BME280;58629;48.808;8.820;2023-02-20T01:35:15;98232.34;;;5.09;92.80
70968;BME280;58629;48.808;8.820;2023-02-20T01:37:41;98235.66;;;5.06;92.71
70968;BME280;58629;48.808;8.820;2023-02-20T01:40:09;98228.47;;;5.03;93.00
70968;BME280;58629;48.808;8.820;2023-02-20T01:42:35;98234.41;;;5.00;93.43
70968;BME280;58629;48.808;8.820;2023-02-20T01:47:49;98229.16;;;5.00;93.12
70968;BME280;58629;48.808;8.820;2023-02-20T01:50:17;98226.97;;;5.02;94.44
70968;BME280;58629;48.808;8.820;2023-02-20T01:52:47;98213.41;;;5.00;94.70
70968;BME280;58629;48.808;8.820;2023-02-20T01:55:17;98205.19;;;5.02;94.90
70968;BME280;58629;48.808;8.820;2023-02-20T01:57:50;98206.38;;;5.04;94.94
70968;BME280;58629;48.808;8.820;2023-02-20T02:00:20;98207.97;;;5.09;95.14
70968;BME280;58629;48.808;8.820;2023-02-20T02:02:51;98207.56;;;5.07;95.23
70968;BME280;58629;48.808;8.820;2023-02-20T02:05:19;98209.84;;;5.08;95.38
70968;BME280;58629;48.808;8.820;2023-02-20T02:07:45;98209.13;;;5.11;95.58
70968;BME280;58629;48.808;8.820;2023-02-20T02:10:20;98207.69;;;5.14;95.14
70968;BME280;58629;48.808;8.820;2023-02-20T02:12:50;98208.94;;;5.20;95.17
70968;BME280;58629;48.808;8.820;2023-02-20T02:15:19;98199.94;;;5.21;94.98
70968;BME280;58629;48.808;8.820;2023-02-20T02:37:59;98196.50;;;5.55;92.74
70968;BME280;58629;48.808;8.820;2023-02-20T02:40:39;98190.84;;;5.53;93.12
70968;BME280;58629;48.808;8.820;2023-02-20T02:43:14;98199.19;;;5.59;93.25
70968;BME280;58629;48.808;8.820;2023-02-20T02:45:52;98187.66;;;5.63;92.47
70968;BME280;58629;48.808;8.820;2023-02-20T02:48:32;98196.84;;;5.73;92.27
70968;BME280;58629;48.808;8.820;2023-02-20T02:51:08;98193.47;;;5.72;92.41
70968;BME280;58629;48.808;8.820;2023-02-20T02:53:34;98179.09;;;5.66;92.54
70968;BME280;58629;48.808;8.820;2023-02-20T02:56:00;98191.31;;;5.59;92.71
70968;BME280;58629;48.808;8.820;2023-02-20T02:58:48;98189.19;;;5.64;92.55
70968;BME280;58629;48.808;8.820;2023-02-20T03:01:17;98190.28;;;5.63;92.93
70968;BME280;58629;48.808;8.820;2023-02-20T03:03:46;98181.63;;;5.63;93.06
70968;BME280;58629;48.808;8.820;2023-02-20T03:06:20;98183.94;;;5.64;92.96
70968;BME280;58629;48.808;8.820;2023-02-20T03:09:13;98185.31;;;5.58;92.77
70968;BME280;58629;48.808;8.820;2023-02-20T03:11:40;98181.94;;;5.58;93.09
70968;BME280;58629;48.808;8.820;2023-02-20T03:14:11;98185.31;;;5.58;93.17
70968;BME280;58629;48.808;8.820;2023-02-20T03:17:14;98184.19;;;5.59;92.83
70968;BME280;58629;48.808;8.820;2023-02-20T03:19:50;98189.47;;;5.59;92.84
70968;BME280;58629;48.808;8.820;2023-02-20T03:22:29;98185.38;;;5.62;92.66
70968;BME280;58629;48.808;8.820;2023-02-20T03:24:59;98198.16;;;5.63;92.83
70968;BME280;58629;48.808;8.820;2023-02-20T03:27:39;98185.44;;;5.65;92.51
70968;BME280;58629;48.808;8.820;2023-02-20T03:30:20;98182.81;;;5.65;92.91
70968;BME280;58629;48.808;8.820;2023-02-20T03:32:50;98172.25;;;5.62;92.76
70968;BME280;58629;48.808;8.820;2023-02-20T03:35:37;98170.25;;;5.55;92.55
70968;BME280;58629;48.808;8.820;2023-02-20T03:38:23;98170.84;;;5.49;92.01
70968;BME280;58629;48.808;8.820;2023-02-20T03:41:09;98171.50;;;5.42;92.59
70968;BME280;58629;48.808;8.820;2023-02-20T03:43:55;98171.75;;;5.37;92.42
70968;BME280;58629;48.808;8.820;2023-02-20T03:46:23;98165.78;;;5.37;92.62
70968;BME280;58629;48.808;8.820;2023-02-20T03:48:57;98174.38;;;5.37;93.30
70968;BME280;58629;48.808;8.820;2023-02-20T03:51:24;98179.22;;;5.35;93.14
70968;BME280;58629;48.808;8.820;2023-02-20T03:53:50;98175.44;;;5.33;93.56
70968;BME280;58629;48.808;8.820;2023-02-20T03:56:33;98185.53;;;5.31;93.64
70968;BME280;58629;48.808;8.820;2023-02-20T03:59:05;98182.16;;;5.30;93.92
70968;BME280;58629;48.808;8.820;2023-02-20T04:01:35;98173.44;;;5.26;94.08
70968;BME280;58629;48.808;8.820;2023-02-20T04:04:02;98172.66;;;5.25;94.03
70968;BME280;58629;48.808;8.820;2023-02-20T04:06:31;98170.41;;;5.24;94.17
70968;BME280;58629;48.808;8.820;2023-02-20T04:09:07;98174.47;;;5.21;93.95
70968;BME280;58629;48.808;8.820;2023-02-20T04:11:42;98167.63;;;5.17;93.92
70968;BME280;58629;48.808;8.820;2023-02-20T04:14:11;98165.69;;;5.14;93.64
70968;BME280;58629;48.808;8.820;2023-02-20T04:16:44;98164.09;;;5.09;93.41
70968;BME280;58629;48.808;8.820;2023-02-20T04:19:11;98155.72;;;5.04;93.23
70968;BME280;58629;48.808;8.820;2023-02-20T04:21:44;98145.16;;;5.00;92.87
70968;BME280;58629;48.808;8.820;2023-02-20T04:24:13;98146.53;;;4.94;93.13
70968;BME280;58629;48.808;8.820;2023-02-20T04:26:40;98142.72;;;4.92;93.03
70968;BME280;58629;48.808;8.820;2023-02-20T04:29:06;98138.09;;;4.85;92.81
70968;BME280;58629;48.808;8.820;2023-02-20T04:31:31;98133.13;;;4.80;92.86
70968;BME280;58629;48.808;8.820;2023-02-20T04:33:57;98136.03;;;4.75;92.74
70968;BME280;58629;48.808;8.820;2023-02-20T04:36:23;98141.09;;;4.68;92.81
70968;BME280;58629;48.808;8.820;2023-02-20T04:38:49;98148.06;;;4.61;92.81
70968;BME280;58629;48.808;8.820;2023-02-20T04:41:14;98146.81;;;4.55;93.54
70968;BME280;58629;48.808;8.820;2023-02-20T04:43:40;98155.69;;;4.50;93.60
70968;BME280;58629;48.808;8.820;2023-02-20T04:46:05;98162.31;;;4.44;93.93
70968;BME280;58629;48.808;8.820;2023-02-20T04:48:30;98154.72;;;4.39;93.47
70968;BME280;58629;48.808;8.820;2023-02-20T04:50:55;98160.19;;;4.34;93.73
70968;BME280;58629;48.808;8.820;2023-02-20T04:53:21;98162.75;;;4.30;93.90
70968;BME280;58629;48.808;8.820;2023-02-20T04:55:46;98152.19;;;4.27;93.95
70968;BME280;58629;48.808;8.820;2023-02-20T04:58:11;98157.34;;;4.23;93.97
70968;BME280;58629;48.808;8.820;2023-02-20T05:00:36;98161.75;;;4.19;93.84
70968;BME280;58629;48.808;8.820;2023-02-20T05:03:02;98164.28;;;4.16;94.24
70968;BME280;58629;48.808;8.820;2023-02-20T05:05:28;98166.81;;;4.12;94.02
70968;BME280;58629;48.808;8.820;2023-02-20T05:07:59;98161.13;;;4.10;93.99
70968;BME280;58629;48.808;8.820;2023-02-20T05:10:26;98166.72;;;4.09;95.17
70968;BME280;58629;48.808;8.820;2023-02-20T05:12:52;98174.50;;;4.05;94.60
70968;BME280;58629;48.808;8.820;2023-02-20T05:15:18;98162.06;;;4.02;95.11
70968;BME280;58629;48.808;8.820;2023-02-20T05:17:43;98161.31;;;4.02;95.25
70968;BME280;58629;48.808;8.820;2023-02-20T05:20:10;98162.75;;;3.99;95.27
70968;BME280;58629;48.808;8.820;2023-02-20T05:22:35;98167.16;;;3.95;95.14
70968;BME280;58629;48.808;8.820;2023-02-20T05:25:00;98164.88;;;3.94;95.10
70968;BME280;58629;48.808;8.820;2023-02-20T05:27:26;98157.66;;;3.91;95.30
70968;BME280;58629;48.808;8.820;2023-02-20T05:29:54;98156.06;;;3.86;95.05
70968;BME280;58629;48.808;8.820;2023-02-20T05:32:21;98166.28;;;3.76;95.13
70968;BME280;58629;48.808;8.820;2023-02-20T05:34:46;98154.88;;;3.68;95.85
70968;BME280;58629;48.808;8.820;2023-02-20T05:37:14;98158.13;;;3.65;95.54
70968;BME280;58629;48.808;8.820;2023-02-20T05:39:40;98141.56;;;3.61;96.31
70968;BME280;58629;48.808;8.820;2023-02-20T05:42:06;98148.22;;;3.59;96.33
70968;BME280;58629;48.808;8.820;2023-02-20T05:44:32;98150.78;;;3.55;96.20
70968;BME280;58629;48.808;8.820;2023-02-20T05:46:57;98146.28;;;3.56;96.12
70968;BME280;58629;48.808;8.820;2023-02-20T05:49:23;98151.88;;;3.54;96.35
70968;BME280;58629;48.808;8.820;2023-02-20T05:51:49;98153.31;;;3.51;96.50
70968;BME280;58629;48.808;8.820;2023-02-20T05:54:17;98148.41;;;3.50;96.61
70968;BME280;58629;48.808;8.820;2023-02-20T05:56:43;98153.97;;;3.48;96.30
70968;BME280;58629;48.808;8.820;2023-02-20T05:59:09;98167.06;;;3.48;96.38
70968;BME280;58629;48.808;8.820;2023-02-20T06:01:35;98170.00;;;3.47;96.57
70968;BME280;58629;48.808;8.820;2023-02-20T06:04:00;98162.16;;;3.47;96.05
70968;BME280;58629;48.808;8.820;2023-02-20T06:06:36;98154.88;;;3.40;96.01
70968;BME280;58629;48.808;8.820;2023-02-20T06:09:02;98159.91;;;3.33;95.28
70968;BME280;58629;48.808;8.820;2023-02-20T06:11:28;98161.94;;;3.24;95.22
70968;BME280;58629;48.808;8.820;2023-02-20T06:13:53;98160.75;;;3.10;95.58
70968;BME280;58629;48.808;8.820;2023-02-20T06:16:24;98164.94;;;3.11;96.46
70968;BME280;58629;48.808;8.820;2023-02-20T06:18:50;98159.25;;;3.09;96.79
70968;BME280;58629;48.808;8.820;2023-02-20T06:21:16;98162.53;;;3.06;96.72
70968;BME280;58629;48.808;8.820;2023-02-20T06:23:43;98160.16;;;3.01;96.43
70968;BME280;58629;48.808;8.820;2023-02-20T06:26:10;98163.50;;;3.01;96.65
70968;BME280;58629;48.808;8.820;2023-02-20T06:28:36;98164.41;;;2.93;96.99
70968;BME280;58629;48.808;8.820;2023-02-20T06:31:02;98155.91;;;2.96;97.26
70968;BME280;58629;48.808;8.820;2023-02-20T06:33:27;98162.34;;;2.99;98.49
70968;BME280;58629;48.808;8.820;2023-02-20T06:35:52;98164.28;;;3.02;98.35
70968;BME280;58629;48.808;8.820;2023-02-20T06:38:17;98172.56;;;3.04;97.81
70968;BME280;58629;48.808;8.820;2023-02-20T06:40:43;98173.31;;;3.04;97.97
70968;BME280;58629;48.808;8.820;2023-02-20T06:43:09;98183.13;;;3.07;98.26
70968;BME280;58629;48.808;8.820;2023-02-20T06:45:34;98178.31;;;3.09;97.91
70968;BME280;58629;48.808;8.820;2023-02-20T06:48:01;98185.53;;;3.12;97.82
70968;BME280;58629;48.808;8.820;2023-02-20T06:50:26;98174.81;;;3.17;98.75
70968;BME280;58629;48.808;8.820;2023-02-20T06:52:51;98184.84;;;3.15;98.25
70968;BME280;58629;48.808;8.820;2023-02-20T06:55:17;98187.03;;;3.13;97.08
70968;BME280;58629;48.808;8.820;2023-02-20T06:57:42;98189.66;;;3.13;97.53
70968;BME280;58629;48.808;8.820;2023-02-20T07:00:07;98189.22;;;3.11;97.41
70968;BME280;58629;48.808;8.820;2023-02-20T07:02:33;98195.47;;;3.07;97.27
70968;BME280;58629;48.808;8.820;2023-02-20T07:05:01;98195.03;;;3.05;97.66
70968;BME280;58629;48.808;8.820;2023-02-20T07:07:26;98196.00;;;3.00;96.95
70968;BME280;58629;48.808;8.820;2023-02-20T07:09:51;98190.78;;;3.00;97.57
70968;BME280;58629;48.808;8.820;2023-02-20T07:12:17;98184.59;;;2.93;96.93
70968;BME280;58629;48.808;8.820;2023-02-20T07:14:42;98183.16;;;2.95;97.84
70968;BME280;58629;48.808;8.820;2023-02-20T07:17:07;98184.78;;;3.00;97.60
70968;BME280;58629;48.808;8.820;2023-02-20T07:19:32;98179.63;;;3.03;98.00
70968;BME280;58629;48.808;8.820;2023-02-20T07:21:58;98191.09;;;3.11;98.61
70968;BME280;58629;48.808;8.820;2023-02-20T07:24:23;98192.38;;;3.17;98.70
70968;BME280;58629;48.808;8.820;2023-02-20T07:26:48;98189.63;;;3.25;98.49
70968;BME280;58629;48.808;8.820;2023-02-20T07:29:14;98194.38;;;3.35;99.06
70968;BME280;58629;48.808;8.820;2023-02-20T07:31:39;98190.88;;;3.43;99.01
70968;BME280;58629;48.808;8.820;2023-02-20T07:34:04;98206.09;;;3.53;99.38
70968;BME280;58629;48.808;8.820;2023-02-20T07:36:30;98198.00;;;3.59;98.87
70968;BME280;58629;48.808;8.820;2023-02-20T07:38:57;98196.34;;;3.66;99.13
70968;BME280;58629;48.808;8.820;2023-02-20T07:41:24;98200.69;;;3.74;98.99
70968;BME280;58629;48.808;8.820;2023-02-20T07:43:50;98193.75;;;3.82;98.87
70968;BME280;58629;48.808;8.820;2023-02-20T07:46:16;98194.00;;;3.92;98.97
70968;BME280;58629;48.808;8.820;2023-02-20T07:48:41;98193.50;;;4.02;99.16
70968;BME280;58629;48.808;8.820;2023-02-20T07:51:06;98189.97;;;4.10;98.10
70968;BME280;58629;48.808;8.820;2023-02-20T07:53:32;98191.31;;;4.20;98.23
70968;BME280;58629;48.808;8.820;2023-02-20T07:55:57;98196.41;;;4.28;98.02
70968;BME280;58629;48.808;8.820;2023-02-20T07:58:23;98195.81;;;4.35;97.64
70968;BME280;58629;48.808;8.820;2023-02-20T08:00:49;98190.72;;;4.42;97.47
70968;BME280;58629;48.808;8.820;2023-02-20T08:03:18;98186.00;;;4.48;97.08
70968;BME280;58629;48.808;8.820;2023-02-20T08:05:43;98182.00;;;4.54;97.66
70968;BME280;58629;48.808;8.820;2023-02-20T08:08:09;98180.66;;;4.94;100.00
70968;BME280;58629;48.808;8.820;2023-02-20T08:10:34;98183.31;;;5.52;100.00
70968;BME280;58629;48.808;8.820;2023-02-20T08:13:00;98190.78;;;6.10;100.00
70968;BME280;58629;48.808;8.820;2023-02-20T08:15:26;98182.72;;;6.71;98.32
70968;BME280;58629;48.808;8.820;2023-02-20T08:17:52;98178.84;;;7.21;94.10
70968;BME280;58629;48.808;8.820;2023-02-20T08:20:18;98174.47;;;7.65;89.73
70968;BME280;58629;48.808;8.820;2023-02-20T08:22:45;98169.53;;;8.01;87.94
70968;BME280;58629;48.808;8.820;2023-02-20T08:25:11;98176.56;;;8.26;84.84
70968;BME280;58629;48.808;8.820;2023-02-20T08:27:41;98170.72;;;8.50;83.84
70968;BME280;58629;48.808;8.820;2023-02-20T08:30:11;98164.84;;;8.74;83.39
70968;BME280;58629;48.808;8.820;2023-02-20T08:32:37;98168.25;;;8.75;81.52
70968;BME280;58629;48.808;8.820;2023-02-20T08:35:02;98167.94;;;8.87;80.71
70968;BME280;58629;48.808;8.820;2023-02-20T08:37:27;98161.97;;;9.04;80.96
70968;BME280;58629;48.808;8.820;2023-02-20T08:39:52;98158.69;;;9.25;80.35
70968;BME280;58629;48.808;8.820;2023-02-20T08:42:18;98156.09;;;9.42;79.19
70968;BME280;58629;48.808;8.820;2023-02-20T08:44:43;98148.22;;;9.56;76.53
70968;BME280;58629;48.808;8.820;2023-02-20T08:47:08;98146.72;;;9.66;77.39
70968;BME280;58629;48.808;8.820;2023-02-20T08:49:34;98145.94;;;9.73;76.73
70968;BME280;58629;48.808;8.820;2023-02-20T08:51:59;98142.16;;;9.67;75.59
70968;BME280;58629;48.808;8.820;2023-02-20T08:54:24;98140.31;;;9.78;76.39
70968;BME280;58629;48.808;8.820;2023-02-20T08:56:50;98146.38;;;9.96;75.51
70968;BME280;58629;48.808;8.820;2023-02-20T08:59:15;98141.88;;;10.14;74.79
70968;BME280;58629;48.808;8.820;2023-02-20T09:01:41;98139.59;;;10.23;73.25
70968;BME280;58629;48.808;8.820;2023-02-20T09:04:07;98138.47;;;10.27;73.47
70968;BME280;58629;48.808;8.820;2023-02-20T09:06:33;98132.00;;;10.46;72.41
70968;BME280;58629;48.808;8.820;2023-02-20T09:08:59;98132.00;;;10.67;71.99
70968;BME280;58629;48.808;8.820;2023-02-20T09:11:24;98136.47;;;10.88;70.50
70968;BME280;58629;48.808;8.820;2023-02-20T09:13:50;98139.09;;;10.98;69.64
70968;BME280;58629;48.808;8.820;2023-02-20T09:16:18;98137.16;;;11.09;69.29
70968;BME280;58629;48.808;8.820;2023-02-20T09:18:44;98133.34;;;11.17;69.14
70968;BME280;58629;48.808;8.820;2023-02-20T09:21:12;98135.53;;;11.33;68.23
70968;BME280;58629;48.808;8.820;2023-02-20T09:23:38;98126.00;;;11.50;68.04
70968;BME280;58629;48.808;8.820;2023-02-20T09:26:04;98131.59;;;11.69;67.66
70968;BME280;58629;48.808;8.820;2023-02-20T09:28:29;98123.50;;;11.90;66.26
70968;BME280;58629;48.808;8.820;2023-02-20T09:30:54;98132.16;;;11.32;65.51
70968;BME280;58629;48.808;8.820;2023-02-20T09:33:22;98119.84;;;11.67;65.90
70968;BME280;58629;48.808;8.820;2023-02-20T09:35:47;98117.09;;;11.81;65.40
70968;BME280;58629;48.808;8.820;2023-02-20T09:38:14;98113.97;;;11.96;63.52
70968;BME280;58629;48.808;8.820;2023-02-20T09:40:40;98113.13;;;12.10;65.29
70968;BME280;58629;48.808;8.820;2023-02-20T09:46:19;98115.69;;;12.17;64.04
70968;BME280;58629;48.808;8.820;2023-02-20T09:49:09;98108.28;;;11.94;62.07
70968;BME280;58629;48.808;8.820;2023-02-20T09:51:38;98106.94;;;10.96;64.16
70968;BME280;58629;48.808;8.820;2023-02-20T09:54:15;98107.41;;;10.56;66.09
70968;BME280;58629;48.808;8.820;2023-02-20T09:56:52;98112.00;;;10.17;67.04
70968;BME280;58629;48.808;8.820;2023-02-20T09:59:19;98101.00;;;10.04;67.66
70968;BME280;58629;48.808;8.820;2023-02-20T10:01:56;98104.81;;;10.10;68.66
70968;BME280;58629;48.808;8.820;2023-02-20T10:04:42;98089.69;;;10.14;70.15
70968;BME280;58629;48.808;8.820;2023-02-20T10:07:15;98084.41;;;10.14;70.13
70968;BME280;58629;48.808;8.820;2023-02-20T10:09:44;98071.50;;;10.34;70.10
70968;BME280;58629;48.808;8.820;2023-02-20T10:12:39;98082.09;;;10.52;69.56
70968;BME280;58629;48.808;8.820;2023-02-20T10:23:16;98067.88;;;11.07;67.46
70968;BME280;58629;48.808;8.820;2023-02-20T10:25:49;98076.16;;;11.16;68.31
70968;BME280;58629;48.808;8.820;2023-02-20T10:28:18;98077.28;;;11.15;66.53
70968;BME280;58629;48.808;8.820;2023-02-20T10:33:35;98077.66;;;11.17;65.44
70968;BME280;58629;48.808;8.820;2023-02-20T10:38:46;98069.63;;;11.35;66.03
70968;BME280;58629;48.808;8.820;2023-02-20T10:41:31;98059.69;;;11.50;65.06
70968;BME280;58629;48.808;8.820;2023-02-20T10:44:09;98062.00;;;11.44;62.99
70968;BME280;58629;48.808;8.820;2023-02-20T10:46:41;98060.19;;;11.27;61.47
70968;BME280;58629;48.808;8.820;2023-02-20T10:49:12;98057.13;;;11.35;63.59
70968;BME280;58629;48.808;8.820;2023-02-20T10:51:42;98051.00;;;11.46;62.22
70968;BME280;58629;48.808;8.820;2023-02-20T10:54:42;98043.78;;;11.50;61.97
70968;BME280;58629;48.808;8.820;2023-02-20T10:57:22;98039.53;;;11.59;62.19
70968;BME280;58629;48.808;8.820;2023-02-20T11:00:04;98052.78;;;11.66;60.49
70968;BME280;58629;48.808;8.820;2023-02-20T11:02:34;98051.63;;;11.67;57.20
70968;BME280;58629;48.808;8.820;2023-02-20T11:05:06;98056.53;;;11.69;58.32
70968;BME280;58629;48.808;8.820;2023-02-20T11:07:33;98058.81;;;11.67;55.05
70968;BME280;58629;48.808;8.820;2023-02-20T11:09:58;98050.81;;;11.74;55.74
70968;BME280;58629;48.808;8.820;2023-02-20T11:12:28;98049.66;;;11.78;55.92
70968;BME280;58629;48.808;8.820;2023-02-20T11:14:59;98047.75;;;11.82;54.74
70968;BME280;58629;48.808;8.820;2023-02-20T11:17:28;98047.31;;;11.87;54.23
70968;BME280;58629;48.808;8.820;2023-02-20T11:19:58;98032.91;;;11.88;52.77
70968;BME280;58629;48.808;8.820;2023-02-20T11:27:41;98021.19;;;12.23;55.56
70968;BME280;58629;48.808;8.820;2023-02-20T11:30:27;98019.53;;;12.36;54.55
70968;BME280;58629;48.808;8.820;2023-02-20T11:33:09;98014.56;;;12.38;53.39
70968;BME280;58629;48.808;8.820;2023-02-20T11:35:37;98012.97;;;12.48;53.24
70968;BME280;58629;48.808;8.820;2023-02-20T11:38:16;98002.97;;;12.59;54.97
70968;BME280;58629;48.808;8.820;2023-02-20T11:41:05;98002.09;;;12.69;53.65
70968;BME280;58629;48.808;8.820;2023-02-20T11:43:40;97995.34;;;12.61;49.29
70968;BME280;58629;48.808;8.820;2023-02-20T11:46:20;97991.81;;;12.71;52.64
70968;BME280;58629;48.808;8.820;2023-02-20T11:51:44;97982.78;;;12.91;52.26
70968;BME280;58629;48.808;8.820;2023-02-20T11:54:22;97981.50;;;13.07;50.34
70968;BME280;58629;48.808;8.820;2023-02-20T11:57:19;97974.75;;;13.25;49.69
70968;BME280;58629;48.808;8.820;2023-02-20T11:59:47;97966.53;;;13.16;47.39
70968;BME280;58629;48.808;8.820;2023-02-20T12:04:42;97960.59;;;13.55;47.81
70968;BME280;58629;48.808;8.820;2023-02-20T12:09:50;97953.72;;;13.57;47.75
70968;BME280;58629;48.808;8.820;2023-02-20T12:12:17;97960.00;;;13.70;46.72
70968;BME280;58629;48.808;8.820;2023-02-20T12:14:47;97955.06;;;13.69;45.46
70968;BME280;58629;48.808;8.820;2023-02-20T12:17:34;97947.25;;;13.81;43.96
70968;BME280;58629;48.808;8.820;2023-02-20T12:20:09;97944.44;;;13.88;47.97
70968;BME280;58629;48.808;8.820;2023-02-20T12:23:31;97943.84;;;14.01;44.91
70968;BME280;58629;48.808;8.820;2023-02-20T12:25:36;97933.13;;;14.04;45.55
70968;BME280;58629;48.808;8.820;2023-02-20T12:28:17;97934.22;;;14.07;44.50
70968;BME280;58629;48.808;8.820;2023-02-20T12:31:23;97933.50;;;14.06;47.01
70968;BME280;58629;48.808;8.820;2023-02-20T12:36:39;97940.31;;;14.27;43.79
70968;BME280;58629;48.808;8.820;2023-02-20T12:39:16;97928.88;;;14.26;44.01
70968;BME280;58629;48.808;8.820;2023-02-20T12:47:29;97923.78;;;14.16;42.38
70968;BME280;58629;48.808;8.820;2023-02-20T13:00:06;97885.63;;;14.58;44.14
70968;BME280;58629;48.808;8.820;2023-02-20T13:02:36;97882.75;;;14.68;43.18
70968;BME280;58629;48.808;8.820;2023-02-20T13:05:06;97880.19;;;14.45;40.42
70968;BME280;58629;48.808;8.820;2023-02-20T13:07:36;97877.34;;;14.36;42.38
70968;BME280;58629;48.808;8.820;2023-02-20T13:10:21;97869.72;;;14.54;42.30
70968;BME280;58629;48.808;8.820;2023-02-20T13:12:48;97863.47;;;14.45;40.44
70968;BME280;58629;48.808;8.820;2023-02-20T13:15:24;97849.88;;;14.39;42.33
70968;BME280;58629;48.808;8.820;2023-02-20T13:18:04;97842.06;;;14.48;41.37
70968;BME280;58629;48.808;8.820;2023-02-20T13:21:01;97849.88;;;14.39;41.68
70968;BME280;58629;48.808;8.820;2023-02-20T13:23:33;97826.06;;;14.48;40.48
70968;BME280;58629;48.808;8.820;2023-02-20T13:25:59;97821.44;;;14.68;40.05
70968;BME280;58629;48.808;8.820;2023-02-20T13:28:39;97823.84;;;14.63;38.89
70968;BME280;58629;48.808;8.820;2023-02-20T13:31:19;97820.84;;;14.77;40.95
70968;BME280;58629;48.808;8.820;2023-02-20T13:36:47;97828.53;;;14.75;37.94
70968;BME280;58629;48.808;8.820;2023-02-20T13:42:00;97815.34;;;14.84;39.35
70968;BME280;58629;48.808;8.820;2023-02-20T13:55:18;97806.81;;;15.21;42.19
70968;BME280;58629;48.808;8.820;2023-02-20T13:57:46;97803.13;;;15.31;39.81
70968;BME280;58629;48.808;8.820;2023-02-20T14:00:28;97805.34;;;15.04;40.53
70968;BME280;58629;48.808;8.820;2023-02-20T14:02:57;97814.91;;;14.86;41.04
70968;BME280;58629;48.808;8.820;2023-02-20T14:05:33;97815.19;;;14.91;38.62
70968;BME280;58629;48.808;8.820;2023-02-20T14:07:58;97804.91;;;15.06;40.40
70968;BME280;58629;48.808;8.820;2023-02-20T14:12:59;97804.94;;;14.73;38.97
70968;BME280;58629;48.808;8.820;2023-02-20T14:15:27;97793.59;;;14.37;40.39
70968;BME280;58629;48.808;8.820;2023-02-20T14:17:53;97785.75;;;14.46;39.50
70968;BME280;58629;48.808;8.820;2023-02-20T14:20:40;97802.34;;;14.38;39.21
70968;BME280;58629;48.808;8.820;2023-02-20T14:23:08;97796.16;;;14.41;41.22
70968;BME280;58629;48.808;8.820;2023-02-20T14:25:33;97768.88;;;14.17;41.49
70968;BME280;58629;48.808;8.820;2023-02-20T14:28:05;97773.69;;;14.22;39.54
70968;BME280;58629;48.808;8.820;2023-02-20T14:30:30;97783.75;;;14.15;39.66
70968;BME280;58629;48.808;8.820;2023-02-20T14:32:56;97776.88;;;14.17;40.15
70968;BME280;58629;48.808;8.820;2023-02-20T14:35:35;97772.00;;;13.96;40.71
70968;BME280;58629;48.808;8.820;2023-02-20T14:40:42;97774.59;;;14.00;43.39
70968;BME280;58629;48.808;8.820;2023-02-20T14:43:14;97761.31;;;13.80;39.18
70968;BME280;58629;48.808;8.820;2023-02-20T14:45:40;97756.50;;;13.91;40.79
70968;BME280;58629;48.808;8.820;2023-02-20T14:48:21;97762.19;;;13.73;40.44
70968;BME280;58629;48.808;8.820;2023-02-20T14:50:46;97756.09;;;13.73;40.02
70968;BME280;58629;48.808;8.820;2023-02-20T14:53:17;97762.19;;;13.73;40.14